Time;durP1;ratioP1;P1;durP2;ratioP2;P2;SDS_P1;SDS_P2;PMS_P1;PMS_P2;Temp;Humidity;BMP_temperature;BMP_pressure;BME280_temperature;BME280_humidity;BME280_pressure;Samples;Min_cycle;Max_cycle;Signal;HPM_P1;HPM_P2
2023/05/11 00:01:02;;;;;;;2.50;1.97;;;10.40;99.90;;;;;;5074234;28;20481;-61
2023/05/11 00:03:29;;;;;;;3.13;2.57;;;10.40;99.90;;;;;;5079173;27;20492;-61
2023/05/11 00:05:56;;;;;;;4.00;2.20;;;10.50;99.90;;;;;;5076624;27;20478;-62
2023/05/11 00:08:23;;;;;;;5.80;2.23;;;10.40;99.90;;;;;;5083107;27;20473;-61
2023/05/11 00:10:49;;;;;;;3.93;2.10;;;10.40;99.90;;;;;;5090940;27;21140;-61
2023/05/11 00:13:19;;;;;;;3.73;2.90;;;10.40;99.90;;;;;;5075845;28;20477;-61
2023/05/11 00:15:46;;;;;;;3.33;3.03;;;10.50;99.90;;;;;;5063275;28;21039;-61
2023/05/11 00:18:13;;;;;;;4.37;2.33;;;10.70;99.90;;;;;;5075259;28;20477;-62
2023/05/11 00:20:40;;;;;;;10.90;3.13;;;10.70;99.90;;;;;;5097390;27;20470;-62
2023/05/11 00:23:06;;;;;;;2.87;2.40;;;10.60;99.90;;;;;;5076662;27;20473;-61
2023/05/11 00:25:33;;;;;;;3.27;2.97;;;10.60;99.90;;;;;;5073233;28;20470;-61
2023/05/11 00:28:00;;;;;;;2.77;2.40;;;10.60;99.90;;;;;;5075917;28;20489;-61
2023/05/11 00:30:28;;;;;;;5.70;2.63;;;10.70;99.90;;;;;;5073441;28;20482;-61
2023/05/11 00:32:55;;;;;;;3.60;2.67;;;10.80;99.90;;;;;;5073791;28;20878;-61
2023/05/11 00:35:22;;;;;;;3.07;2.60;;;11.00;99.90;;;;;;5076140;28;20474;-61
2023/05/11 00:37:49;;;;;;;2.43;2.00;;;11.10;99.90;;;;;;5074602;28;20490;-61
2023/05/11 00:40:16;;;;;;;3.20;2.60;;;11.20;99.90;;;;;;5074026;28;20478;-61
2023/05/11 00:42:43;;;;;;;2.57;2.30;;;11.20;99.90;;;;;;5072936;28;20489;-61
2023/05/11 00:45:10;;;;;;;4.13;2.73;;;11.20;99.90;;;;;;5073816;28;20844;-61
2023/05/11 00:47:38;;;;;;;3.90;3.50;;;11.20;99.90;;;;;;5073186;28;20853;-61
2023/05/11 00:50:07;;;;;;;6.63;4.47;;;11.20;99.90;;;;;;5073469;28;20517;-61
2023/05/11 00:52:34;;;;;;;4.00;3.57;;;11.10;99.90;;;;;;5078346;28;20485;-61
2023/05/11 00:55:01;;;;;;;6.40;5.17;;;11.00;99.90;;;;;;5075533;28;20482;-61
2023/05/11 00:57:30;;;;;;;7.30;6.03;;;10.90;99.90;;;;;;5074180;28;20532;-61
2023/05/11 00:59:57;;;;;;;6.73;4.13;;;10.90;99.90;;;;;;5074516;28;20807;-61
2023/05/11 01:02:24;;;;;;;5.50;5.00;;;10.90;99.90;;;;;;5073623;28;20824;-62
2023/05/11 01:04:52;;;;;;;6.60;5.53;;;11.00;99.90;;;;;;5076478;28;20481;-61
2023/05/11 01:07:23;;;;;;;6.73;5.53;;;11.10;99.90;;;;;;5077192;28;20502;-61
2023/05/11 01:09:59;;;;;;;9.30;6.87;;;11.30;99.90;;;;;;5073929;28;20501;-61
2023/05/11 01:12:33;;;;;;;11.80;7.30;;;11.30;99.90;;;;;;5072894;28;20474;-61
2023/05/11 01:15:04;;;;;;;7.17;5.97;;;11.10;99.90;;;;;;5078137;28;20491;-61
2023/05/11 01:17:41;;;;;;;5.93;5.33;;;11.20;99.90;;;;;;5071143;28;20485;-61
2023/05/11 01:20:12;;;;;;;11.70;6.00;;;11.20;99.90;;;;;;5079784;28;20478;-61
2023/05/11 01:23:06;;;;;;;6.87;5.70;;;11.20;99.90;;;;;;5075658;28;20548;-62
2023/05/11 01:25:51;;;;;;;7.50;6.63;;;11.20;99.90;;;;;;5074216;28;21101;-62
2023/05/11 01:28:29;;;;;;;8.07;5.40;;;11.30;99.90;;;;;;5076258;28;20527;-61
2023/05/11 01:31:02;;;;;;;7.20;5.50;;;11.50;99.90;;;;;;5071438;28;20504;-61
2023/05/11 01:33:32;;;;;;;10.53;6.70;;;11.60;99.90;;;;;;5086138;28;20482;-61
2023/05/11 01:36:04;;;;;;;6.67;5.50;;;11.60;99.90;;;;;;5099541;28;21186;-61
2023/05/11 01:38:32;;;;;;;8.57;6.70;;;11.70;99.90;;;;;;5090408;28;20478;-61
2023/05/11 01:41:03;;;;;;;11.50;6.10;;;11.70;99.90;;;;;;5042229;28;1197546;-61
2023/05/11 01:43:33;;;;;;;8.43;7.53;;;11.70;99.90;;;;;;5085684;28;20248;-62
2023/05/11 01:46:03;;;;;;;9.87;7.17;;;11.70;99.90;;;;;;5097377;27;20699;-61
2023/05/11 01:48:38;;;;;;;9.30;6.80;;;11.60;99.90;;;;;;5081664;28;20470;-61
2023/05/11 01:51:05;;;;;;;8.47;6.57;;;11.70;99.90;;;;;;5089856;28;20486;-61
2023/05/11 01:53:36;;;;;;;9.87;7.67;;;11.70;99.90;;;;;;5080989;28;20555;-62
2023/05/11 01:56:05;;;;;;;9.50;6.77;;;11.70;99.90;;;;;;5083328;28;20473;-61
2023/05/11 01:58:34;;;;;;;12.37;7.10;;;11.70;99.90;;;;;;5072092;28;20482;-61
2023/05/11 02:01:03;;;;;;;12.23;6.60;;;11.90;99.90;;;;;;5100377;27;20494;-61
2023/05/11 02:03:33;;;;;;;10.83;6.50;;;11.90;99.90;;;;;;5099413;28;20480;-61
2023/05/11 02:06:02;;;;;;;7.70;6.90;;;12.00;99.90;;;;;;5098036;28;20835;-62
2023/05/11 02:08:31;;;;;;;11.90;6.63;;;12.00;99.90;;;;;;5074527;28;20475;-61
2023/05/11 02:10:59;;;;;;;9.33;7.03;;;12.10;99.90;;;;;;5073751;28;20501;-61
2023/05/11 02:13:27;;;;;;;12.70;7.70;;;12.10;99.90;;;;;;5090941;28;20478;-61
2023/05/11 02:15:57;;;;;;;9.20;7.17;;;12.10;99.90;;;;;;5079807;28;20552;-61
2023/05/11 02:18:26;;;;;;;7.40;6.70;;;12.20;99.90;;;;;;5072054;28;20466;-62
2023/05/11 02:20:53;;;;;;;9.70;6.90;;;12.20;99.90;;;;;;5103060;27;20469;-61
2023/05/11 02:23:23;;;;;;;8.13;7.10;;;12.20;99.90;;;;;;5077856;28;20845;-61
2023/05/11 02:25:51;;;;;;;16.13;10.53;;;12.20;99.90;;;;;;5094539;27;20481;-61
2023/05/11 02:28:18;;;;;;;12.57;8.70;;;12.20;99.90;;;;;;5087364;28;20485;-61
2023/05/11 02:30:47;;;;;;;7.87;7.00;;;12.30;99.90;;;;;;5091852;28;20482;-61
2023/05/11 02:33:20;;;;;;;10.07;7.30;;;12.30;99.90;;;;;;5094486;27;20998;-61
2023/05/11 02:35:50;;;;;;;10.70;8.23;;;12.30;99.90;;;;;;5072688;28;20489;-61
2023/05/11 02:38:18;;;;;;;9.97;7.17;;;12.30;99.90;;;;;;5076738;28;20486;-61
2023/05/11 02:40:47;;;;;;;9.40;7.00;;;12.30;99.90;;;;;;5074312;28;20848;-61
2023/05/11 02:43:22;;;;;;;10.77;7.53;;;12.30;99.90;;;;;;5076673;28;20506;-61
2023/05/11 02:45:52;;;;;;;10.03;7.20;;;12.30;99.90;;;;;;5084132;28;20905;-61
2023/05/11 02:48:25;;;;;;;7.53;6.43;;;12.10;99.90;;;;;;5095554;28;20489;-61
2023/05/11 02:50:55;;;;;;;9.10;6.80;;;12.20;99.90;;;;;;5073889;28;20462;-61
2023/05/11 02:53:25;;;;;;;8.57;7.40;;;12.30;99.90;;;;;;5094553;28;20478;-60
2023/05/11 02:55:54;;;;;;;10.40;8.53;;;12.40;99.90;;;;;;5090493;27;20478;-61
2023/05/11 02:58:22;;;;;;;7.77;6.97;;;12.30;99.90;;;;;;5078538;28;20738;-61
2023/05/11 03:00:49;;;;;;;12.20;8.20;;;12.30;99.90;;;;;;5081046;28;20477;-61
2023/05/11 03:03:16;;;;;;;8.23;7.40;;;12.10;99.90;;;;;;5086397;27;20705;-61
2023/05/11 03:05:43;;;;;;;8.70;7.50;;;12.20;99.90;;;;;;5100269;27;20468;-60
2023/05/11 03:08:11;;;;;;;12.30;8.80;;;12.30;99.90;;;;;;5108785;27;20472;-60
2023/05/11 03:10:38;;;;;;;9.50;8.10;;;12.30;99.90;;;;;;5092139;28;20973;-60
2023/05/11 03:13:06;;;;;;;12.77;7.43;;;12.20;99.90;;;;;;5091047;28;20997;-60
2023/05/11 03:15:33;;;;;;;10.53;8.43;;;12.20;99.90;;;;;;5074079;28;20474;-61
2023/05/11 03:18:01;;;;;;;12.50;9.93;;;12.10;99.90;;;;;;5073446;28;20825;-60
2023/05/11 03:20:28;;;;;;;12.27;9.80;;;12.00;99.90;;;;;;5083071;28;20479;-60
2023/05/11 03:22:56;;;;;;;18.13;10.27;;;12.00;99.90;;;;;;5089252;27;21032;-61
2023/05/11 03:25:25;;;;;;;15.83;11.47;;;12.00;99.90;;;;;;5071946;28;20483;-60
2023/05/11 03:27:54;;;;;;;15.43;10.10;;;11.90;99.90;;;;;;5076174;27;20489;-60
2023/05/11 03:30:23;;;;;;;15.33;10.00;;;11.90;99.90;;;;;;5105471;27;20823;-60
2023/05/11 03:32:49;;;;;;;19.13;10.13;;;11.80;99.90;;;;;;5082307;28;20501;-60
2023/05/11 03:35:16;;;;;;;14.63;10.83;;;11.80;99.90;;;;;;5072774;28;20474;-61
2023/05/11 03:37:44;;;;;;;15.87;11.30;;;11.90;99.90;;;;;;5080958;28;20481;-61
2023/05/11 03:40:14;;;;;;;15.37;11.43;;;11.80;99.90;;;;;;5082234;28;21021;-61
2023/05/11 03:42:43;;;;;;;14.73;10.17;;;11.70;99.90;;;;;;5077721;28;20476;-61
2023/05/11 03:45:13;;;;;;;18.10;12.80;;;11.80;99.90;;;;;;5077805;28;20486;-61
2023/05/11 03:47:42;;;;;;;21.10;11.30;;;11.80;99.90;;;;;;5087948;28;20470;-61
2023/05/11 03:50:11;;;;;;;19.37;11.80;;;11.80;99.90;;;;;;5071871;28;20485;-61
2023/05/11 03:52:38;;;;;;;21.93;13.03;;;11.80;99.90;;;;;;5081923;28;20488;-61
2023/05/11 03:55:06;;;;;;;18.80;12.50;;;11.90;99.90;;;;;;5097370;28;20481;-61
2023/05/11 03:57:33;;;;;;;17.73;11.70;;;11.90;99.90;;;;;;5083575;27;21107;-61
2023/05/11 04:00:01;;;;;;;27.03;12.73;;;11.90;99.90;;;;;;5072647;27;20476;-61
2023/05/11 04:02:28;;;;;;;14.63;11.33;;;12.00;99.90;;;;;;5083552;28;20490;-60
2023/05/11 04:04:55;;;;;;;16.27;10.90;;;12.00;99.90;;;;;;5064505;28;20695;-61
2023/05/11 04:07:22;;;;;;;18.13;11.43;;;12.10;99.90;;;;;;5071691;28;20825;-61
2023/05/11 04:09:48;;;;;;;18.77;11.60;;;12.10;99.90;;;;;;5069852;28;20505;-61
2023/05/11 04:12:15;;;;;;;19.33;12.00;;;12.10;99.90;;;;;;5074884;28;20486;-61
2023/05/11 04:14:42;;;;;;;18.30;11.80;;;12.10;99.90;;;;;;5078245;28;20489;-60
2023/05/11 04:17:10;;;;;;;19.67;12.03;;;12.00;99.90;;;;;;5084243;28;20488;-61
2023/05/11 04:19:37;;;;;;;14.27;10.93;;;12.00;99.90;;;;;;5094793;28;20481;-61
2023/05/11 04:22:04;;;;;;;15.33;11.50;;;12.00;99.90;;;;;;5071235;28;20486;-61
2023/05/11 04:24:31;;;;;;;21.20;11.37;;;11.90;99.90;;;;;;5074343;28;21021;-61
2023/05/11 04:26:57;;;;;;;17.70;10.60;;;11.90;99.90;;;;;;5076284;28;20848;-61
2023/05/11 04:29:25;;;;;;;18.53;10.37;;;11.90;99.90;;;;;;5068688;28;20954;-61
2023/05/11 04:31:52;;;;;;;15.43;11.13;;;11.90;99.90;;;;;;5078057;28;20485;-61
2023/05/11 04:34:20;;;;;;;16.90;11.20;;;11.90;99.90;;;;;;5099956;27;20603;-61
2023/05/11 04:36:47;;;;;;;21.23;13.03;;;12.00;99.90;;;;;;5080229;28;20478;-61
2023/05/11 04:39:15;;;;;;;17.30;12.00;;;12.30;99.90;;;;;;5077714;28;20481;-61
2023/05/11 04:41:42;;;;;;;19.67;11.93;;;12.00;99.90;;;;;;5087149;28;20524;-61
2023/05/11 04:44:09;;;;;;;17.20;13.00;;;12.00;99.90;;;;;;5094114;28;20480;-61
2023/05/11 04:46:37;;;;;;;19.87;12.57;;;12.00;99.90;;;;;;5080755;28;20477;-61
2023/05/11 04:49:04;;;;;;;16.50;12.60;;;12.10;99.90;;;;;;5081630;28;20486;-61
2023/05/11 04:51:32;;;;;;;17.97;12.70;;;12.10;99.90;;;;;;5089013;27;20499;-61
2023/05/11 04:53:59;;;;;;;24.63;14.13;;;12.10;99.90;;;;;;5098561;27;20484;-61
2023/05/11 04:56:26;;;;;;;19.90;12.93;;;12.00;99.90;;;;;;5090994;28;21037;-61
2023/05/11 04:58:53;;;;;;;18.50;11.87;;;12.00;99.90;;;;;;5081788;28;21259;-61
2023/05/11 05:01:19;;;;;;;14.57;11.90;;;12.00;99.90;;;;;;5079990;28;21004;-61
2023/05/11 05:03:49;;;;;;;19.70;12.67;;;12.00;99.90;;;;;;5091170;28;20562;-61
2023/05/11 05:06:16;;;;;;;22.13;12.50;;;12.10;99.90;;;;;;5076054;28;20552;-61
2023/05/11 05:08:44;;;;;;;21.57;13.27;;;12.10;99.90;;;;;;5085159;27;20493;-61
2023/05/11 05:11:11;;;;;;;18.80;12.70;;;12.20;99.90;;;;;;5080515;28;20841;-61
2023/05/11 05:13:38;;;;;;;19.27;12.57;;;12.30;99.90;;;;;;5082442;27;20474;-61
2023/05/11 05:16:05;;;;;;;16.30;11.33;;;12.30;99.90;;;;;;5092224;28;20478;-60
2023/05/11 05:18:32;;;;;;;18.07;12.20;;;12.40;99.90;;;;;;5075869;28;20498;-60
2023/05/11 05:20:59;;;;;;;19.33;12.90;;;12.30;99.90;;;;;;5094816;27;20485;-60
2023/05/11 05:23:25;;;;;;;17.50;11.70;;;12.40;99.90;;;;;;5097612;28;20477;-60
2023/05/11 05:25:54;;;;;;;19.07;12.73;;;12.40;99.90;;;;;;5092638;27;20485;-60
2023/05/11 05:28:20;;;;;;;21.50;12.47;;;12.40;99.90;;;;;;5086220;28;20485;-60
2023/05/11 05:30:47;;;;;;;26.23;13.97;;;12.40;99.90;;;;;;5083550;28;20474;-60
2023/05/11 05:33:14;;;;;;;20.67;11.37;;;12.40;99.90;;;;;;5091774;28;20480;-60
2023/05/11 05:35:42;;;;;;;19.60;13.20;;;12.60;99.90;;;;;;5077224;28;20478;-61
2023/05/11 05:38:09;;;;;;;20.53;12.50;;;12.80;99.90;;;;;;5066418;28;20498;-60
2023/05/11 05:40:38;;;;;;;17.97;13.67;;;12.90;99.90;;;;;;5076266;28;20504;-61
2023/05/11 05:43:06;;;;;;;23.87;14.80;;;13.10;99.90;;;;;;5083192;28;20478;-60
2023/05/11 05:45:33;;;;;;;15.80;11.53;;;13.20;99.90;;;;;;5076313;28;20462;-60
2023/05/11 05:48:00;;;;;;;21.93;13.90;;;13.20;99.90;;;;;;5095104;27;20480;-61
2023/05/11 05:50:27;;;;;;;23.90;14.07;;;13.20;99.90;;;;;;5088949;28;20478;-61
2023/05/11 05:52:53;;;;;;;20.30;14.07;;;13.20;99.90;;;;;;5077095;28;20544;-61
2023/05/11 05:55:21;;;;;;;20.77;14.63;;;13.20;99.90;;;;;;5089622;28;20478;-60
2023/05/11 05:57:48;;;;;;;22.40;14.27;;;13.10;99.90;;;;;;5088336;28;20561;-61
2023/05/11 06:00:17;;;;;;;23.00;14.70;;;13.10;99.90;;;;;;5095283;28;20481;-61
2023/05/11 06:02:43;;;;;;;21.23;14.33;;;13.10;99.90;;;;;;5075324;28;20555;-61
2023/05/11 06:05:11;;;;;;;21.60;13.67;;;;;;;;;;5082902;28;20488;-61
2023/05/11 06:07:38;;;;;;;23.17;13.83;;;13.10;99.90;;;;;;5076263;28;20987;-61
2023/05/11 06:10:05;;;;;;;16.60;12.80;;;13.10;99.90;;;;;;5080680;28;20484;-60
2023/05/11 06:12:32;;;;;;;22.37;15.57;;;13.10;99.90;;;;;;5091652;28;20485;-61
2023/05/11 06:14:59;;;;;;;20.27;13.63;;;13.20;99.90;;;;;;5077803;28;20478;-61
2023/05/11 06:17:27;;;;;;;23.90;15.13;;;13.20;99.90;;;;;;5076294;28;20486;-61
2023/05/11 06:19:54;;;;;;;23.40;14.10;;;13.30;99.90;;;;;;5085939;28;20534;-61
2023/05/11 06:22:21;;;;;;;20.47;14.40;;;13.30;99.90;;;;;;5085870;28;20839;-61
2023/05/11 06:24:48;;;;;;;23.37;14.77;;;13.40;99.90;;;;;;5097121;27;21197;-61
2023/05/11 06:27:15;;;;;;;19.83;14.83;;;13.40;99.90;;;;;;5081627;28;20524;-61
2023/05/11 06:29:42;;;;;;;23.10;15.80;;;13.40;99.90;;;;;;5079567;28;20480;-61
2023/05/11 06:32:09;;;;;;;26.67;17.60;;;13.50;99.90;;;;;;5079222;28;20642;-61
2023/05/11 06:34:38;;;;;;;23.40;15.97;;;13.50;99.90;;;;;;5078486;28;20481;-60
2023/05/11 06:37:05;;;;;;;30.10;16.73;;;13.50;99.90;;;;;;5072275;28;20482;-60
2023/05/11 06:39:34;;;;;;;24.27;16.17;;;13.50;99.90;;;;;;5072687;28;20510;-61
2023/05/11 06:42:01;;;;;;;23.67;15.63;;;13.50;99.90;;;;;;5076737;28;20485;-61
2023/05/11 06:44:28;;;;;;;23.40;16.53;;;13.60;99.90;;;;;;5080387;28;20886;-61
2023/05/11 06:46:55;;;;;;;40.10;24.50;;;13.50;99.90;;;;;;5094627;27;20482;-61
2023/05/11 06:49:22;;;;;;;26.93;19.10;;;13.50;99.90;;;;;;5073247;28;20486;-60
2023/05/11 06:51:50;;;;;;;25.57;15.50;;;13.50;99.90;;;;;;5083892;28;20513;-61
2023/05/11 06:54:17;;;;;;;29.17;16.60;;;13.70;99.90;;;;;;5083671;28;20861;-61
2023/05/11 06:56:44;;;;;;;21.23;15.50;;;13.70;99.90;;;;;;5073937;28;20884;-61
2023/05/11 06:59:11;;;;;;;24.13;16.37;;;13.70;99.90;;;;;;5075494;27;20486;-61
2023/05/11 07:01:38;;;;;;;21.43;14.80;;;13.70;99.90;;;;;;5105753;27;20530;-61
2023/05/11 07:04:05;;;;;;;24.33;15.57;;;13.70;99.90;;;;;;5088244;28;20515;-61
2023/05/11 07:06:32;;;;;;;26.53;15.60;;;13.70;99.90;;;;;;5078622;28;20485;-61
2023/05/11 07:09:02;;;;;;;20.37;15.73;;;13.80;99.90;;;;;;5073189;28;20509;-61
2023/05/11 07:11:29;;;;;;;21.40;15.80;;;13.80;99.90;;;;;;5084936;27;20489;-61
2023/05/11 07:13:56;;;;;;;22.47;15.67;;;13.80;99.90;;;;;;5087389;28;21009;-61
2023/05/11 07:16:23;;;;;;;27.90;17.83;;;13.90;99.90;;;;;;5088357;28;20876;-61
2023/05/11 07:18:50;;;;;;;24.63;16.20;;;13.90;99.90;;;;;;5073501;27;20603;-61
2023/05/11 07:21:17;;;;;;;21.83;15.83;;;14.00;99.90;;;;;;5109350;27;20480;-61
2023/05/11 07:23:44;;;;;;;23.37;16.67;;;14.00;99.90;;;;;;5092143;28;20477;-61
2023/05/11 07:26:13;;;;;;;24.30;16.60;;;14.00;99.90;;;;;;5091886;28;20565;-62
2023/05/11 07:28:40;;;;;;;24.77;17.00;;;14.10;99.90;;;;;;5077359;28;20486;-62
2023/05/11 07:31:06;;;;;;;23.40;16.07;;;14.20;99.90;;;;;;5076906;28;20508;-61
2023/05/11 07:33:34;;;;;;;25.90;16.90;;;14.30;99.90;;;;;;5076493;28;20853;-61
2023/05/11 07:36:01;;;;;;;25.70;16.40;;;14.30;99.90;;;;;;5088434;28;20566;-62
2023/05/11 07:38:27;;;;;;;25.70;16.63;;;14.50;99.90;;;;;;5093494;28;20481;-61
2023/05/11 07:40:55;;;;;;;25.40;17.70;;;14.60;99.90;;;;;;5094580;28;20481;-62
2023/05/11 07:43:23;;;;;;;28.00;16.07;;;14.60;99.90;;;;;;5098879;28;20485;-62
2023/05/11 07:45:50;;;;;;;21.03;14.87;;;14.50;99.90;;;;;;5085012;27;20475;-61
2023/05/11 07:48:16;;;;;;;25.77;17.10;;;14.70;99.90;;;;;;5086114;28;20474;-62
2023/05/11 07:50:43;;;;;;;27.00;15.67;;;14.80;99.90;;;;;;5094429;28;20485;-62
2023/05/11 07:53:10;;;;;;;25.83;15.93;;;14.90;99.90;;;;;;5093501;28;20485;-62
2023/05/11 07:55:37;;;;;;;24.27;17.03;;;15.00;99.90;;;;;;5074033;28;20573;-62
2023/05/11 07:58:04;;;;;;;23.37;16.60;;;14.90;99.90;;;;;;5093521;28;20473;-62
2023/05/11 08:00:32;;;;;;;30.40;17.87;;;14.80;99.90;;;;;;5086142;28;21064;-62
2023/05/11 08:03:00;;;;;;;30.30;18.53;;;14.90;99.90;;;;;;5082649;28;20481;-62
2023/05/11 08:05:26;;;;;;;26.40;18.90;;;15.00;99.90;;;;;;5074567;28;20554;-62
2023/05/11 08:07:53;;;;;;;31.90;17.57;;;15.10;99.90;;;;;;5076088;28;20487;-62
2023/05/11 08:10:20;;;;;;;25.57;16.90;;;15.30;99.90;;;;;;5095441;27;20481;-62
2023/05/11 08:12:47;;;;;;;30.97;18.00;;;15.40;99.90;;;;;;5094978;27;20478;-62
2023/05/11 08:15:14;;;;;;;22.43;17.20;;;15.60;99.90;;;;;;5098150;27;20490;-62
2023/05/11 08:17:44;;;;;;;29.80;17.20;;;15.70;99.90;;;;;;5078159;27;20999;-62
2023/05/11 08:20:12;;;;;;;24.37;15.87;;;15.80;99.90;;;;;;5090856;27;20474;-62
2023/05/11 08:22:39;;;;;;;34.17;17.07;;;15.80;99.90;;;;;;5082221;27;20492;-62
2023/05/11 08:25:07;;;;;;;24.07;16.03;;;15.90;99.90;;;;;;5075592;28;20482;-61
2023/05/11 08:27:34;;;;;;;23.43;15.03;;;15.90;99.90;;;;;;5084678;28;20497;-62
2023/05/11 08:30:00;;;;;;;26.70;16.60;;;16.10;99.90;;;;;;5080177;28;20477;-62
2023/05/11 08:32:28;;;;;;;22.70;15.73;;;16.20;99.90;;;;;;5089678;27;20492;-61
2023/05/11 08:34:56;;;;;;;21.83;15.13;;;16.30;99.90;;;;;;5083304;27;20587;-62
2023/05/11 08:37:23;;;;;;;15.83;12.93;;;16.30;99.90;;;;;;5080279;28;20482;-61
2023/05/11 08:39:50;;;;;;;26.60;16.73;;;16.30;99.90;;;;;;5075555;28;20494;-61
2023/05/11 08:42:17;;;;;;;26.30;16.53;;;16.30;99.90;;;;;;5084171;28;20481;-62
2023/05/11 08:44:45;;;;;;;22.60;14.67;;;16.10;99.90;;;;;;5093722;27;20481;-61
2023/05/11 08:47:12;;;;;;;29.43;15.90;;;16.10;99.90;;;;;;5080956;28;20486;-62
2023/05/11 08:49:39;;;;;;;21.93;14.23;;;16.30;99.90;;;;;;5078134;28;20574;-62
2023/05/11 08:52:11;;;;;;;22.03;14.07;;;16.40;99.90;;;;;;5088988;28;20473;-61
2023/05/11 08:54:38;;;;;;;19.97;13.17;;;16.60;99.90;;;;;;5085062;28;20571;-62
2023/05/11 08:57:06;;;;;;;18.37;13.27;;;17.00;99.90;;;;;;5077631;28;20830;-62
2023/05/11 08:59:33;;;;;;;22.93;12.70;;;17.20;99.10;;;;;;5084635;28;20540;-62
2023/05/11 09:02:02;;;;;;;19.80;12.20;;;17.20;99.30;;;;;;5111126;27;20480;-61
2023/05/11 09:04:29;;;;;;;20.87;12.80;;;17.40;98.70;;;;;;5089942;27;20488;-62
2023/05/11 09:06:57;;;;;;;14.70;12.53;;;17.40;99.20;;;;;;5081379;28;20486;-62
2023/05/11 09:09:25;;;;;;;15.60;12.30;;;17.60;97.90;;;;;;5081575;28;20734;-62
2023/05/11 09:11:54;;;;;;;17.53;13.43;;;17.60;98.70;;;;;;5079265;28;20859;-61
2023/05/11 09:14:21;;;;;;;19.23;14.37;;;17.50;98.60;;;;;;5092807;27;20871;-62
2023/05/11 09:16:48;;;;;;;16.23;12.03;;;17.50;98.00;;;;;;5084849;28;20595;-62
2023/05/11 09:19:16;;;;;;;18.47;11.87;;;17.80;99.10;;;;;;5082231;28;20857;-62
2023/05/11 09:21:43;;;;;;;13.53;10.60;;;18.00;99.60;;;;;;5092323;28;21051;-63
2023/05/11 09:24:13;;;;;;;12.70;10.60;;;18.20;97.20;;;;;;5090068;28;20481;-63
2023/05/11 09:26:41;;;;;;;16.30;10.60;;;18.30;97.90;;;;;;5079205;28;20471;-63
2023/05/11 09:29:08;;;;;;;11.73;9.80;;;18.50;98.60;;;;;;5087962;28;20482;-62
2023/05/11 09:31:39;;;;;;;15.73;11.07;;;18.50;97.10;;;;;;5088696;27;20521;-63
2023/05/11 09:34:13;;;;;;;23.63;11.60;;;18.50;97.50;;;;;;5091341;28;20492;-63
2023/05/11 09:36:40;;;;;;;13.73;10.80;;;18.60;97.30;;;;;;5085026;27;20711;-63
2023/05/11 09:39:07;;;;;;;17.13;12.17;;;18.50;96.70;;;;;;5075954;28;20491;-63
2023/05/11 09:41:34;;;;;;;19.47;11.63;;;18.20;96.20;;;;;;5090987;28;20482;-63
2023/05/11 09:44:08;;;;;;;17.07;12.33;;;18.30;97.50;;;;;;5074423;27;20503;-63
2023/05/11 09:46:36;;;;;;;16.90;10.70;;;18.30;97.10;;;;;;5120496;27;20495;-63
2023/05/11 09:49:04;;;;;;;14.30;11.03;;;18.10;96.20;;;;;;5087906;28;20490;-63
2023/05/11 09:51:33;;;;;;;14.70;9.53;;;18.00;96.90;;;;;;5073374;28;20510;-63
2023/05/11 09:54:57;;;;;;;12.83;9.23;;;17.90;95.70;;;;;;5074670;28;21147;-64
2023/05/11 09:57:28;;;;;;;11.37;9.13;;;18.20;96.40;;;;;;5066478;28;20472;-63
2023/05/11 09:59:57;;;;;;;13.97;9.30;;;18.30;97.90;;;;;;5080285;28;20478;-62
2023/05/11 10:02:26;;;;;;;10.03;7.73;;;18.30;96.30;;;;;;5079836;28;20483;-63
2023/05/11 10:04:55;;;;;;;11.83;9.27;;;18.30;95.60;;;;;;5078583;27;20518;-62
2023/05/11 10:07:30;;;;;;;12.03;9.43;;;18.40;96.50;;;;;;5069412;27;20992;-62
2023/05/11 10:09:58;;;;;;;9.80;8.00;;;18.30;96.50;;;;;;5094790;27;20466;-62
2023/05/11 10:12:26;;;;;;;10.57;8.70;;;18.40;96.40;;;;;;5092964;27;20670;-62
2023/05/11 10:14:58;;;;;;;63.53;39.50;;;18.40;95.70;;;;;;5089072;27;20471;-62
2023/05/11 10:17:26;;;;;;;18.60;11.50;;;18.40;95.80;;;;;;5081211;27;20476;-62
2023/05/11 10:19:55;;;;;;;11.90;9.50;;;18.40;96.10;;;;;;5093752;27;20493;-62
2023/05/11 10:22:22;;;;;;;11.23;7.37;;;18.30;96.20;;;;;;5097411;27;20510;-62
2023/05/11 10:24:50;;;;;;;10.13;6.73;;;18.30;95.60;;;;;;5104291;27;20488;-62
2023/05/11 10:27:18;;;;;;;15.73;9.27;;;18.30;95.10;;;;;;5078737;28;20528;-62
2023/05/11 10:29:46;;;;;;;12.20;10.07;;;18.30;95.20;;;;;;5075681;28;21765;-62
2023/05/11 10:32:16;;;;;;;11.80;9.43;;;18.30;95.80;;;;;;5088144;28;20656;-62
2023/05/11 10:34:45;;;;;;;11.00;8.23;;;18.40;95.70;;;;;;5077775;28;20503;-62
2023/05/11 10:37:13;;;;;;;10.20;9.00;;;18.40;95.00;;;;;;5093320;27;20473;-62
2023/05/11 10:39:41;;;;;;;15.33;8.20;;;18.40;94.60;;;;;;5088486;28;20471;-63
2023/05/11 10:42:25;;;;;;;16.70;8.30;;;18.40;94.80;;;;;;5076432;28;20476;-63
2023/05/11 10:45:02;;;;;;;10.13;8.20;;;18.30;95.00;;;;;;5094371;28;20907;-62
2023/05/11 10:47:59;;;;;;;8.60;7.27;;;17.90;94.60;;;;;;5072095;28;20485;-63
2023/05/11 10:50:47;;;;;;;8.67;7.23;;;17.90;94.40;;;;;;5071433;28;20467;-62
2023/05/11 10:53:29;;;;;;;8.43;6.23;;;17.90;95.30;;;;;;5078707;27;20469;-62
2023/05/11 10:56:11;;;;;;;9.67;6.00;;;17.90;95.20;;;;;;5079707;27;20490;-62
2023/05/11 10:58:53;;;;;;;12.40;6.10;;;17.90;95.30;;;;;;5072493;28;20467;-62
2023/05/11 11:01:36;;;;;;;10.20;6.40;;;17.90;95.40;;;;;;5075119;27;20908;-62
2023/05/11 11:04:06;;;;;;;8.10;6.43;;;17.90;94.90;;;;;;5086743;27;20996;-62
2023/05/11 11:06:34;;;;;;;7.50;6.00;;;17.90;95.60;;;;;;5083599;27;20474;-62
2023/05/11 11:09:04;;;;;;;6.30;5.43;;;;;;;;;;5090618;28;20492;-62
2023/05/11 11:11:37;;;;;;;11.23;6.87;;;17.90;95.30;;;;;;5084805;28;20851;-62
2023/05/11 11:14:05;;;;;;;9.67;7.47;;;18.00;95.30;;;;;;5081962;28;20486;-62
2023/05/11 11:16:33;;;;;;;7.00;6.40;;;17.90;95.10;;;;;;5082326;28;20536;-62
2023/05/11 11:19:37;;;;;;;7.70;6.40;;;18.00;95.30;;;;;;5080611;28;20478;-62
2023/05/11 11:22:04;;;;;;;7.77;5.93;;;18.00;95.20;;;;;;5087370;27;20485;-62
2023/05/11 11:24:44;;;;;;;10.37;6.10;;;18.10;95.20;;;;;;5082382;28;20897;-62
2023/05/11 11:27:12;;;;;;;9.20;6.57;;;18.10;95.10;;;;;;5076368;28;20939;-63
2023/05/11 11:29:40;;;;;;;8.67;6.77;;;18.20;95.20;;;;;;5075113;28;20954;-63
2023/05/11 11:32:26;;;;;;;10.23;7.30;;;18.10;94.80;;;;;;5082848;28;20707;-62
2023/05/11 11:34:55;;;;;;;13.30;7.47;;;18.00;94.30;;;;;;5086992;28;20568;-63
2023/05/11 11:37:23;;;;;;;17.00;14.80;;;18.00;94.30;;;;;;5077775;28;20829;-62
2023/05/11 11:39:59;;;;;;;8.67;6.20;;;18.00;94.50;;;;;;5081707;28;20501;-63
2023/05/11 11:42:40;;;;;;;10.40;6.20;;;18.00;94.80;;;;;;5085272;28;20469;-62
2023/05/11 11:45:32;;;;;;;12.30;7.63;;;18.20;95.30;;;;;;5089892;27;20489;-62
2023/05/11 11:48:13;;;;;;;8.83;6.87;;;18.20;94.40;;;;;;5071385;28;20488;-62
2023/05/11 11:50:46;;;;;;;13.13;7.10;;;18.20;95.00;;;;;;5077215;28;20485;-62
2023/05/11 11:54:04;;;;;;;7.73;7.00;;;18.20;94.70;;;;;;5078817;28;20486;-62
2023/05/11 11:56:42;;;;;;;8.43;7.20;;;18.40;95.00;;;;;;5067078;28;20467;-62
2023/05/11 11:59:12;;;;;;;7.90;6.53;;;18.40;95.60;;;;;;5066959;28;20486;-62
2023/05/11 12:01:40;;;;;;;7.73;5.60;;;18.50;94.60;;;;;;5096861;28;20469;-62
2023/05/11 12:04:22;;;;;;;8.73;5.83;;;18.60;94.40;;;;;;5082049;28;20535;-62
2023/05/11 12:06:56;;;;;;;6.73;5.90;;;18.80;93.70;;;;;;5083324;27;20991;-62
2023/05/11 12:09:24;;;;;;;9.50;4.60;;;18.80;94.00;;;;;;5082113;28;21052;-62
2023/05/11 12:11:52;;;;;;;6.10;4.60;;;18.80;94.80;;;;;;5082085;28;20480;-63
2023/05/11 12:14:20;;;;;;;8.27;5.17;;;18.90;94.00;;;;;;5085931;28;20484;-63
2023/05/11 12:17:01;;;;;;;7.83;5.70;;;18.80;94.50;;;;;;5072361;28;20483;-63
2023/05/11 12:19:28;;;;;;;10.23;5.90;;;18.80;94.20;;;;;;5078761;28;20474;-63
2023/05/11 12:21:56;;;;;;;6.57;4.80;;;18.90;95.20;;;;;;5076918;28;20875;-63
2023/05/11 12:24:23;;;;;;;12.70;6.77;;;18.90;94.40;;;;;;5081016;27;20840;-62
2023/05/11 12:26:50;;;;;;;10.80;6.43;;;18.80;95.10;;;;;;5076638;28;20446;-63
2023/05/11 12:29:17;;;;;;;8.20;6.17;;;18.90;96.00;;;;;;5093878;27;20485;-63
2023/05/11 12:31:45;;;;;;;7.70;6.03;;;18.90;96.00;;;;;;5096438;28;20678;-63
2023/05/11 12:34:15;;;;;;;6.10;5.50;;;18.90;95.30;;;;;;5092522;27;20457;-63
2023/05/11 12:36:42;;;;;;;6.63;5.33;;;18.90;95.00;;;;;;5071436;28;20539;-63
2023/05/11 12:39:17;;;;;;;7.60;5.93;;;19.10;95.90;;;;;;5067948;28;20539;-63
2023/05/11 12:41:44;;;;;;;8.43;6.20;;;19.30;95.80;;;;;;5066773;28;20892;-63
2023/05/11 12:44:12;;;;;;;8.63;6.27;;;19.40;95.40;;;;;;5085403;28;20476;-63
2023/05/11 12:46:39;;;;;;;9.70;6.90;;;19.70;94.70;;;;;;5096036;28;20691;-64